Time;durP1;ratioP1;P1;durP2;ratioP2;P2;SDS_P1;SDS_P2;PMS_P1;PMS_P2;Temp;Humidity;BMP_temperature;BMP_pressure;BME280_temperature;BME280_humidity;BME280_pressure;Samples;Min_cycle;Max_cycle;Signal;HPM_P1;HPM_P2
2022/03/10 00:02:19;;;;;;;23.50;10.65;;;;;;;1.29;57.34;97023.47;5087994;28;20048;-77
2022/03/10 00:04:47;;;;;;;20.52;10.27;;;;;;;1.28;57.41;97017.28;5088390;28;20058;-75
2022/03/10 00:07:14;;;;;;;20.83;10.63;;;;;;;1.26;57.46;97014.03;5088672;28;20048;-75
2022/03/10 00:09:40;;;;;;;19.45;9.98;;;;;;;1.29;57.22;97020.78;5087341;28;20605;-75
2022/03/10 00:12:08;;;;;;;24.60;10.63;;;;;;;1.30;58.00;97020.56;5089473;28;20048;-78
2022/03/10 00:14:34;;;;;;;20.00;9.82;;;;;;;1.30;57.24;97025.09;5088393;28;20070;-77
2022/03/10 00:17:01;;;;;;;19.88;9.63;;;;;;;1.30;56.85;97025.94;5087577;28;20589;-78
2022/03/10 00:19:27;;;;;;;18.40;9.35;;;;;;;1.28;56.93;97027.22;5088147;28;20494;-75
2022/03/10 00:21:55;;;;;;;18.67;9.02;;;;;;;1.24;57.20;97026.88;5087329;28;20059;-77
2022/03/10 00:24:22;;;;;;;20.55;9.70;;;;;;;1.18;57.52;97022.47;5087722;28;20093;-78
2022/03/10 00:26:48;;;;;;;19.92;9.68;;;;;;;1.17;57.41;97030.78;5087780;28;20049;-75
2022/03/10 00:29:16;;;;;;;20.00;9.73;;;;;;;1.16;57.12;97018.44;5087210;28;20706;-78
2022/03/10 00:31:42;;;;;;;18.58;9.30;;;;;;;1.17;57.70;97017.38;5088083;28;20708;-77
2022/03/10 00:34:09;;;;;;;20.35;9.85;;;;;;;1.17;57.49;97022.72;5086744;28;20051;-77
2022/03/10 00:36:36;;;;;;;20.60;10.07;;;;;;;1.16;57.37;97021.09;5098459;28;20043;-78
2022/03/10 00:39:05;;;;;;;20.55;9.68;;;;;;;1.14;57.17;97024.00;5107090;28;20058;-77
2022/03/10 00:41:31;;;;;;;22.98;10.63;;;;;;;1.09;57.41;97029.28;5108898;28;20044;-78
2022/03/10 00:43:58;;;;;;;18.40;10.05;;;;;;;1.07;57.71;97026.03;5107101;28;20093;-78
2022/03/10 00:46:25;;;;;;;18.13;9.18;;;;;;;1.06;57.51;97024.41;5107445;28;20654;-77
2022/03/10 00:48:51;;;;;;;20.75;9.13;;;;;;;1.04;57.23;97031.88;5107692;28;20048;-78
2022/03/10 00:51:17;;;;;;;20.15;9.65;;;;;;;1.02;57.29;97039.34;5107235;28;20044;-77
2022/03/10 00:53:44;;;;;;;18.92;9.27;;;;;;;0.97;58.06;97033.91;5107713;28;20085;-77
2022/03/10 00:56:12;;;;;;;18.05;9.30;;;;;;;0.95;57.90;97033.34;5107276;28;20138;-78
2022/03/10 00:58:38;;;;;;;18.35;9.00;;;;;;;0.93;58.32;97027.38;5107854;28;20059;-78
2022/03/10 01:01:05;;;;;;;22.23;9.82;;;;;;;0.92;57.91;97028.44;5089604;28;20040;-76
2022/03/10 01:03:31;;;;;;;16.95;9.38;;;;;;;0.90;58.11;97026.00;5087779;28;20506;-78
2022/03/10 01:05:58;;;;;;;19.42;9.23;;;;;;;0.87;58.29;97029.16;5086359;28;20507;-78
2022/03/10 01:08:24;;;;;;;17.77;8.70;;;;;;;0.85;58.60;97033.13;5086710;28;20063;-77
2022/03/10 01:10:51;;;;;;;18.70;9.77;;;;;;;0.81;58.29;97026.63;5086685;28;20045;-78
2022/03/10 01:13:20;;;;;;;20.75;9.52;;;;;;;0.81;58.05;97031.97;5098742;28;20055;-78
2022/03/10 01:15:47;;;;;;;16.98;8.10;;;;;;;0.82;57.91;97031.75;5107052;28;20051;-78
2022/03/10 01:18:14;;;;;;;16.17;8.55;;;;;;;0.83;57.80;97037.91;5106741;28;20047;-77
2022/03/10 01:20:40;;;;;;;16.17;8.85;;;;;;;0.84;57.77;97032.34;5088849;28;20056;-78
2022/03/10 01:23:07;;;;;;;18.83;9.93;;;;;;;0.85;57.59;97039.31;5106299;28;20052;-78
2022/03/10 01:25:34;;;;;;;17.83;9.45;;;;;;;0.81;57.31;97038.16;5107450;28;20047;-78
2022/03/10 01:28:00;;;;;;;21.17;10.18;;;;;;;0.75;57.42;97045.28;5106380;28;20048;-77
2022/03/10 01:30:28;;;;;;;19.70;9.38;;;;;;;0.67;57.69;97037.63;5095735;28;20040;-77
2022/03/10 01:32:54;;;;;;;18.70;9.23;;;;;;;0.63;58.14;97041.84;5085925;28;20048;-77
2022/03/10 01:35:21;;;;;;;20.13;8.75;;;;;;;0.62;58.20;97034.81;5086552;28;20051;-78
2022/03/10 01:37:47;;;;;;;16.88;8.73;;;;;;;0.61;58.68;97038.56;5086797;28;20044;-78
2022/03/10 01:40:17;;;;;;;17.75;8.60;;;;;;;0.61;58.30;97043.94;5086001;28;20083;-77
2022/03/10 01:42:43;;;;;;;18.90;8.50;;;;;;;0.58;58.31;97033.69;5093787;28;20409;-78
2022/03/10 01:45:12;;;;;;;19.13;9.40;;;;;;;0.56;58.11;97041.16;5105926;28;20048;-78
2022/03/10 01:47:40;;;;;;;16.52;9.07;;;;;;;0.50;58.15;97045.59;5107353;28;20090;-78
2022/03/10 01:50:08;;;;;;;14.68;8.63;;;;;;;0.47;58.61;97037.19;5105771;28;20062;-78
2022/03/10 01:52:35;;;;;;;15.07;8.10;;;;;;;0.48;59.24;97033.50;5107824;28;20043;-78
2022/03/10 01:55:02;;;;;;;15.73;8.90;;;;;;;0.48;59.96;97033.50;5106125;28;20052;-78
2022/03/10 01:57:29;;;;;;;16.17;8.45;;;;;;;0.47;60.38;97038.03;5106572;28;20387;-78
2022/03/10 01:59:56;;;;;;;14.38;7.80;;;;;;;0.46;59.71;97038.25;5099139;28;20047;-78
2022/03/10 02:02:23;;;;;;;12.18;7.95;;;;;;;0.47;59.81;97032.69;5085802;28;20506;-78
2022/03/10 02:04:51;;;;;;;16.08;7.75;;;;;;;0.46;59.22;97038.25;5085994;28;20051;-76
2022/03/10 02:10:18;;;;;;;13.38;7.70;;;;;;;0.40;59.21;97026.63;5086338;28;20059;-78
2022/03/10 02:12:45;;;;;;;13.98;7.78;;;;;;;0.42;59.13;97029.09;5092519;28;20130;-78
2022/03/10 02:18:00;;;;;;;14.38;8.02;;;;;;;0.42;59.20;97031.75;5106166;28;20053;-78
2022/03/10 02:20:28;;;;;;;15.80;8.38;;;;;;;0.41;59.92;97032.78;5105791;28;20055;-78
2022/03/10 02:22:57;;;;;;;17.02;8.32;;;;;;;0.42;60.49;97031.75;5106420;28;20490;-78
2022/03/10 02:25:24;;;;;;;15.68;8.25;;;;;;;0.40;60.77;97025.81;5104953;28;20059;-77
2022/03/10 02:27:53;;;;;;;13.32;8.48;;;;;;;0.40;60.57;97033.84;5106757;28;20058;-77
2022/03/10 02:30:20;;;;;;;11.85;6.78;;;;;;;0.38;60.90;97027.94;5094619;28;20113;-78
2022/03/10 02:32:49;;;;;;;14.93;8.02;;;;;;;0.34;60.77;97032.13;5087339;28;20590;-78
2022/03/10 02:35:16;;;;;;;15.90;7.53;;;;;;;0.32;60.24;97034.22;5088883;28;20044;-77
2022/03/10 02:37:43;;;;;;;14.77;8.50;;;;;;;0.28;59.86;97038.44;5090355;28;20056;-78
2022/03/10 02:40:12;;;;;;;15.25;8.25;;;;;;;0.27;59.84;97034.13;5089737;28;20048;-78
2022/03/10 02:42:39;;;;;;;16.10;8.65;;;;;;;0.26;60.47;97041.31;5096310;28;20048;-77
2022/03/10 02:45:07;;;;;;;18.67;8.02;;;;;;;0.18;60.57;97045.19;5109791;28;20062;-78
2022/03/10 02:47:34;;;;;;;13.88;8.73;;;;;;;0.16;60.87;97058.00;5109853;28;20435;-77
2022/03/10 02:50:03;;;;;;;15.95;8.10;;;;;;;0.14;61.19;97059.28;5106787;28;20056;-78
2022/03/10 02:52:30;;;;;;;16.23;8.45;;;;;;;0.12;61.88;97056.84;5088941;28;20526;-78
2022/03/10 02:54:56;;;;;;;12.98;7.43;;;;;;;0.12;61.90;97054.16;5089900;28;20106;-77
2022/03/10 02:57:25;;;;;;;17.38;8.48;;;;;;;0.13;62.03;97058.47;5088309;28;20086;-78
2022/03/10 02:59:51;;;;;;;13.68;8.30;;;;;;;0.13;61.69;97063.00;5083262;28;20044;-78
2022/03/10 03:02:18;;;;;;;14.20;7.35;;;;;;;0.11;61.79;97065.13;5068695;28;20053;-76
2022/03/10 03:04:44;;;;;;;14.80;7.75;;;;;;;0.04;61.84;97059.84;5068754;28;20080;-78
2022/03/10 03:07:11;;;;;;;16.52;8.15;;;;;;;0.03;61.74;97066.28;5069318;28;20063;-79
2022/03/10 03:09:37;;;;;;;16.77;8.80;;;;;;;0.03;61.92;97068.94;5068832;28;20060;-78
2022/03/10 03:12:04;;;;;;;15.48;7.78;;;;;;;0.02;61.98;97064.66;5070926;28;20055;-77
2022/03/10 03:14:32;;;;;;;15.52;7.75;;;;;;;0.02;61.83;97061.97;5108293;28;20047;-77
2022/03/10 03:16:59;;;;;;;13.57;8.07;;;;;;;0.01;61.35;97064.88;5110229;28;20510;-76
2022/03/10 03:19:26;;;;;;;15.63;7.95;;;;;;;-0.03;60.72;97067.22;5109050;28;20493;-77
2022/03/10 03:21:53;;;;;;;16.63;8.20;;;;;;;-0.06;60.67;97075.69;5110451;28;20082;-78
2022/03/10 03:24:20;;;;;;;14.70;7.55;;;;;;;-0.11;61.55;97064.88;5111365;28;20518;-78
2022/03/10 03:26:47;;;;;;;14.02;7.65;;;;;;;-0.14;61.88;97073.38;5111532;28;20047;-78
2022/03/10 03:29:13;;;;;;;14.65;7.78;;;;;;;-0.17;61.99;97073.81;5109905;28;20047;-79
2022/03/10 03:31:41;;;;;;;15.02;7.95;;;;;;;-0.20;62.46;97079.66;5090845;28;20503;-77
2022/03/10 03:34:10;;;;;;;15.25;8.43;;;;;;;-0.21;62.72;97072.66;5089838;28;20055;-78
2022/03/10 03:36:38;;;;;;;14.32;8.13;;;;;;;-0.22;62.65;97084.41;5089347;28;20454;-78
2022/03/10 03:39:05;;;;;;;15.50;8.55;;;;;;;-0.22;62.62;97087.91;5090651;28;20044;-79
2022/03/10 03:41:32;;;;;;;16.33;7.70;;;;;;;-0.24;63.19;97094.53;5085871;28;20101;-78
2022/03/10 03:43:59;;;;;;;15.75;8.55;;;;;;;-0.23;63.24;97098.84;5089206;28;20052;-77
2022/03/10 03:46:26;;;;;;;17.35;7.43;;;;;;;-0.23;63.10;97096.16;5087815;28;20498;-77
2022/03/10 03:48:54;;;;;;;14.57;7.90;;;;;;;-0.22;63.03;97089.78;5089009;28;20059;-78
2022/03/10 03:51:21;;;;;;;18.30;8.15;;;;;;;-0.22;63.29;97097.78;5103081;28;20773;-78
2022/03/10 03:53:48;;;;;;;18.67;8.48;;;;;;;-0.25;63.52;97098.28;5108678;28;20052;-78
2022/03/10 03:56:14;;;;;;;16.75;8.77;;;;;;;-0.30;63.65;97101.63;5108276;28;20093;-78
2022/03/10 03:58:41;;;;;;;18.45;8.82;;;;;;;-0.32;63.52;97104.53;5108450;28;20062;-77
2022/03/10 04:01:07;;;;;;;21.50;9.50;;;;;;;-0.33;63.66;97113.59;5108853;28;20062;-77
2022/03/10 04:03:34;;;;;;;18.10;9.10;;;;;;;-0.38;63.72;97108.13;5108281;28;20047;-78
2022/03/10 04:06:02;;;;;;;17.45;8.57;;;;;;;-0.41;63.80;97115.81;5108838;28;20520;-77
2022/03/10 04:08:28;;;;;;;18.20;10.25;;;;;;;-0.41;63.81;97111.28;5108163;28;20046;-78
2022/03/10 04:10:55;;;;;;;21.77;10.90;;;;;;;-0.39;63.83;97109.19;5109489;27;20509;-77
2022/03/10 04:13:22;;;;;;;22.38;10.82;;;;;;;-0.39;63.97;97114.53;5107959;28;20043;-79
2022/03/10 04:15:49;;;;;;;21.48;9.90;;;;;;;-0.40;64.20;97112.91;5108159;28;20707;-78
2022/03/10 04:18:16;;;;;;;17.25;8.60;;;;;;;-0.41;64.38;97111.28;5108275;28;20147;-78
2022/03/10 04:20:43;;;;;;;15.00;7.82;;;;;;;-0.41;64.61;97115.81;5108138;28;20047;-78
2022/03/10 04:23:11;;;;;;;17.40;8.80;;;;;;;-0.44;64.97;97119.75;5108404;28;20047;-78
2022/03/10 04:25:38;;;;;;;17.42;8.95;;;;;;;-0.41;64.96;97119.31;5107418;28;20048;-77
2022/03/10 04:28:05;;;;;;;18.58;8.82;;;;;;;-0.41;64.76;97116.63;5108570;28;20047;-78
2022/03/10 04:30:33;;;;;;;23.85;11.00;;;;;;;-0.41;64.49;97121.97;5107723;28;20059;-77
2022/03/10 04:33:01;;;;;;;19.88;10.32;;;;;;;-0.40;64.13;97128.16;5108807;28;20051;-78
2022/03/10 04:35:29;;;;;;;22.52;11.18;;;;;;;-0.42;63.98;97125.69;5106947;28;20047;-78
2022/03/10 04:37:56;;;;;;;22.05;10.50;;;;;;;-0.50;64.26;97128.69;5107958;28;20055;-77
2022/03/10 04:40:24;;;;;;;27.88;13.73;;;;;;;-0.54;64.56;97125.66;5107598;28;20051;-77
2022/03/10 04:42:51;;;;;;;34.08;16.55;;;;;;;-0.54;64.47;97124.84;5109083;27;20058;-79
2022/03/10 04:45:18;;;;;;;60.10;27.48;;;;;;;-0.55;64.64;97120.53;5108341;28;20410;-77
2022/03/10 04:47:45;;;;;;;69.47;29.83;;;;;;;-0.56;64.72;97118.91;5108603;28;20048;-78
2022/03/10 04:50:13;;;;;;;63.55;29.45;;;;;;;-0.55;64.74;97125.91;5108177;28;20055;-78
2022/03/10 04:52:41;;;;;;;69.00;31.80;;;;;;;-0.60;64.91;97131.91;5107573;28;20044;-78
2022/03/10 04:55:10;;;;;;;73.28;32.60;;;;;;;-0.62;64.92;97127.84;5107259;28;20044;-77
2022/03/10 04:57:38;;;;;;;75.28;32.58;;;;;;;-0.63;64.84;97128.88;5108255;28;20079;-78
2022/03/10 05:00:08;;;;;;;74.78;33.10;;;;;;;-0.65;64.58;97136.31;5099204;28;20044;-77
2022/03/10 05:02:35;;;;;;;62.88;28.58;;;;;;;-0.69;64.64;97130.59;5088047;28;20048;-78
2022/03/10 05:05:02;;;;;;;62.78;29.02;;;;;;;-0.67;64.55;97133.06;5086896;28;20055;-80
2022/03/10 05:07:29;;;;;;;56.38;24.98;;;;;;;-0.67;64.69;97131.22;5088454;28;20550;-77
2022/03/10 05:09:55;;;;;;;44.30;21.75;;;;;;;-0.64;64.77;97124.56;5087221;28;20047;-78
2022/03/10 05:12:22;;;;;;;43.38;19.75;;;;;;;-0.61;64.50;97132.16;5104845;28;20146;-78
2022/03/10 05:14:50;;;;;;;39.33;17.08;;;;;;;-0.61;64.43;97129.47;5106364;28;20056;-77
2022/03/10 05:17:16;;;;;;;34.78;15.32;;;;;;;-0.61;64.44;97132.16;5107011;28;20066;-78
2022/03/10 05:19:43;;;;;;;26.08;11.60;;;;;;;-0.62;64.47;97135.88;5107057;28;20069;-78
2022/03/10 05:22:09;;;;;;;25.10;11.27;;;;;;;-0.63;64.71;97119.00;5106410;28;20059;-77
2022/03/10 05:24:36;;;;;;;27.17;11.77;;;;;;;-0.63;64.33;97123.53;5106986;28;20043;-78
2022/03/10 05:27:03;;;;;;;28.63;13.15;;;;;;;-0.63;63.85;97120.84;5106245;28;20046;-78
2022/03/10 05:29:29;;;;;;;22.05;11.30;;;;;;;-0.64;63.72;97129.94;5104126;28;20131;-77
2022/03/10 05:31:57;;;;;;;23.25;10.23;;;;;;;-0.67;63.83;97119.69;5086720;28;20048;-78
2022/03/10 05:34:24;;;;;;;25.80;11.20;;;;;;;-0.67;64.20;97127.72;5086673;28;20052;-78
2022/03/10 05:36:51;;;;;;;27.00;12.45;;;;;;;-0.70;64.54;97128.16;5086516;28;20624;-77
2022/03/10 05:39:18;;;;;;;22.77;11.63;;;;;;;-0.72;64.22;97130.25;5086935;28;20052;-78
2022/03/10 05:41:44;;;;;;;21.88;10.23;;;;;;;-0.74;64.62;97126.97;5098644;28;20058;-76
2022/03/10 05:44:11;;;;;;;22.58;11.93;;;;;;;-0.79;64.56;97120.44;5106640;28;20050;-77
2022/03/10 05:46:37;;;;;;;28.15;10.70;;;;;;;-0.83;64.70;97123.81;5106315;28;20137;-77
2022/03/10 05:49:05;;;;;;;23.52;11.02;;;;;;;-0.83;64.55;97126.50;5106438;28;20047;-77
2022/03/10 05:51:32;;;;;;;22.63;10.60;;;;;;;-0.84;64.74;97122.97;5106810;28;20658;-77
2022/03/10 05:53:59;;;;;;;20.60;10.10;;;;;;;-0.82;64.72;97126.28;5106364;28;20054;-78
2022/03/10 05:56:25;;;;;;;26.02;11.88;;;;;;;-0.85;64.90;97137.41;5106052;28;20047;-78
2022/03/10 05:58:52;;;;;;;21.48;11.68;;;;;;;-0.83;64.71;97138.00;5106309;28;20048;-77
2022/03/10 06:01:18;;;;;;;22.90;11.02;;;;;;;-0.80;64.85;97134.06;5088432;28;20047;-77
2022/03/10 06:03:45;;;;;;;25.30;11.45;;;;;;;-0.77;65.05;97138.16;5086122;28;20051;-77
2022/03/10 06:06:13;;;;;;;27.55;11.50;;;;;;;-0.71;65.13;97137.25;5086112;28;20118;-77
2022/03/10 06:08:42;;;;;;;23.35;11.15;;;;;;;-0.66;65.16;97138.19;5085264;28;20048;-77
2022/03/10 06:11:09;;;;;;;21.00;10.50;;;;;;;-0.61;64.90;97140.19;5093272;28;20044;-76
2022/03/10 06:13:36;;;;;;;23.35;10.88;;;;;;;-0.55;64.87;97140.09;5106434;28;20040;-77
2022/03/10 06:16:03;;;;;;;23.10;11.18;;;;;;;-0.49;64.79;97145.56;5106003;28;20138;-79
2022/03/10 06:18:31;;;;;;;20.48;11.35;;;;;;;-0.46;64.78;97151.28;5107088;28;20085;-76
2022/03/10 06:20:57;;;;;;;20.83;10.95;;;;;;;-0.43;64.92;97150.00;5105853;28;20055;-76
2022/03/10 06:23:25;;;;;;;31.48;11.30;;;;;;;-0.42;65.23;97151.63;5106736;28;20047;-77
2022/03/10 06:25:51;;;;;;;23.48;11.38;;;;;;;-0.40;65.45;97155.72;5105683;28;20055;-77
2022/03/10 06:28:18;;;;;;;23.10;11.30;;;;;;;-0.36;65.13;97154.22;5106649;28;20047;-78
2022/03/10 06:30:44;;;;;;;26.38;11.13;;;;;;;-0.31;64.90;97159.72;5107125;28;20048;-77
2022/03/10 06:33:11;;;;;;;23.35;11.30;;;;;;;-0.23;64.73;97155.06;5106371;28;20047;-76
2022/03/10 06:35:38;;;;;;;21.00;11.10;;;;;;;-0.18;64.83;97160.53;5105812;28;20134;-76
2022/03/10 06:38:04;;;;;;;21.92;10.75;;;;;;;-0.11;64.46;97164.72;5105436;28;20048;-75
2022/03/10 06:40:32;;;;;;;23.65;12.32;;;;;;;-0.03;64.33;97166.28;5104565;28;20047;-78
2022/03/10 06:42:59;;;;;;;23.38;11.98;;;;;;;0.04;64.05;97166.97;5106322;28;20052;-76
2022/03/10 06:45:25;;;;;;;26.10;12.85;;;;;;;0.11;63.90;97167.69;5106832;28;20636;-76
2022/03/10 06:47:52;;;;;;;23.45;11.57;;;;;;;0.19;63.69;97164.66;5107711;28;20043;-78
2022/03/10 06:50:19;;;;;;;32.45;12.35;;;;;;;0.29;63.27;97168.63;5106587;28;20055;-77
2022/03/10 06:52:45;;;;;;;25.73;12.15;;;;;;;0.32;63.30;97165.50;5106490;28;20060;-76
2022/03/10 06:55:12;;;;;;;21.23;11.45;;;;;;;0.36;62.72;97166.63;5106113;28;20040;-77
2022/03/10 06:57:40;;;;;;;24.30;11.80;;;;;;;0.46;62.84;97169.56;5106164;28;20055;-78
2022/03/10 07:00:08;;;;;;;26.42;11.45;;;;;;;0.51;63.28;97167.00;5106300;28;20055;-76
2022/03/10 07:02:34;;;;;;;21.90;11.43;;;;;;;0.56;62.93;97164.41;5106828;28;20047;-75
2022/03/10 07:05:02;;;;;;;20.10;11.00;;;;;;;0.63;62.71;97162.47;5106819;28;20055;-75
2022/03/10 07:07:28;;;;;;;22.50;10.20;;;;;;;0.66;62.34;97170.00;5106491;28;20051;-76
2022/03/10 07:09:55;;;;;;;21.27;11.05;;;;;;;0.76;62.32;97159.50;5106789;28;20066;-75
2022/03/10 07:12:21;;;;;;;21.23;11.50;;;;;;;0.87;62.52;97152.50;5106054;28;20043;-75
2022/03/10 07:14:49;;;;;;;20.98;11.02;;;;;;;0.99;61.97;97153.31;5094097;28;20151;-76
2022/03/10 07:17:15;;;;;;;22.35;11.35;;;;;;;1.12;61.48;97152.19;5087315;28;20489;-75
2022/03/10 07:19:42;;;;;;;20.88;11.13;;;;;;;1.28;61.32;97156.81;5107677;28;20043;-76
2022/03/10 07:22:08;;;;;;;21.27;10.07;;;;;;;1.66;60.22;97152.66;5109375;28;20052;-75
2022/03/10 07:24:35;;;;;;;21.95;11.48;;;;;;;2.22;58.84;97153.63;5109682;28;20050;-76
2022/03/10 07:27:02;;;;;;;19.63;10.57;;;;;;;2.86;57.59;97154.00;5109090;28;20069;-79
2022/03/10 07:29:28;;;;;;;21.20;9.57;;;;;;;3.48;55.93;97155.53;5109760;28;20051;-76
2022/03/10 07:31:56;;;;;;;20.30;9.50;;;;;;;4.08;53.79;97156.41;5109770;28;20048;-78
2022/03/10 07:34:23;;;;;;;14.57;8.40;;;;;;;4.57;51.01;97158.94;5108964;28;20047;-75
2022/03/10 07:36:49;;;;;;;17.70;8.40;;;;;;;4.62;50.13;97153.56;5109103;28;20074;-76
2022/03/10 07:39:15;;;;;;;16.02;8.70;;;;;;;4.63;51.05;97153.28;5111216;28;20070;-75
2022/03/10 07:41:42;;;;;;;15.65;8.32;;;;;;;4.67;51.01;97156.28;5109569;28;20048;-76
2022/03/10 07:44:08;;;;;;;14.32;8.30;;;;;;;5.04;48.62;97152.72;5108589;28;20044;-75
2022/03/10 07:46:35;;;;;;;15.57;7.93;;;;;;;5.78;47.47;97147.00;5108968;28;20047;-76
2022/03/10 07:49:03;;;;;;;15.15;7.70;;;;;;;6.56;45.25;97151.41;5108835;28;20052;-78
2022/03/10 07:51:30;;;;;;;17.98;9.88;;;;;;;7.30;43.95;97158.78;5109402;28;20058;-75
2022/03/10 07:53:56;;;;;;;17.73;10.43;;;;;;;7.81;42.33;97150.41;5108797;28;20659;-76
2022/03/10 07:56:23;;;;;;;14.88;9.27;;;;;;;8.38;41.84;97153.56;5109047;28;20074;-76
2022/03/10 07:58:50;;;;;;;14.77;9.20;;;;;;;8.98;39.80;97154.91;5108716;28;20051;-76
2022/03/10 08:01:17;;;;;;;15.57;9.02;;;;;;;9.55;38.41;97155.88;5091615;28;20449;-76
2022/03/10 08:03:47;;;;;;;14.95;8.30;;;;;;;9.93;37.93;97147.72;5088594;28;20515;-75
2022/03/10 08:06:15;;;;;;;16.35;8.27;;;;;;;10.31;36.80;97140.38;5090131;28;20055;-75
2022/03/10 08:08:42;;;;;;;15.63;8.65;;;;;;;10.74;36.18;97144.81;5089839;28;20414;-76
2022/03/10 08:11:09;;;;;;;12.95;7.85;;;;;;;11.15;34.99;97140.25;5097235;28;20108;-76
2022/03/10 08:13:36;;;;;;;12.07;8.18;;;;;;;11.43;34.57;97142.97;5109274;28;20391;-77
2022/03/10 08:16:02;;;;;;;17.00;8.50;;;;;;;11.72;33.72;97145.38;5109175;28;20063;-75
2022/03/10 08:18:30;;;;;;;13.98;7.95;;;;;;;12.07;33.54;97141.06;5111827;28;20487;-75
2022/03/10 08:20:57;;;;;;;16.15;9.10;;;;;;;12.51;33.17;97144.94;5108021;28;20044;-76
2022/03/10 08:23:26;;;;;;;12.68;8.82;;;;;;;12.55;32.76;97135.00;5111780;27;20093;-76
2022/03/10 08:25:53;;;;;;;18.30;9.27;;;;;;;12.84;33.12;97136.44;5124211;27;20075;-76
2022/03/10 08:28:20;;;;;;;11.90;8.05;;;;;;;13.38;31.62;97137.22;5109665;28;20047;-76
2022/03/10 08:30:46;;;;;;;15.73;9.88;;;;;;;13.51;33.00;97139.03;5108443;28;20532;-75
2022/03/10 08:33:13;;;;;;;17.80;9.60;;;;;;;13.94;31.26;97136.38;5110049;28;20047;-76
2022/03/10 08:35:42;;;;;;;14.02;8.48;;;;;;;14.32;31.28;97125.59;5109288;28;20051;-76
2022/03/10 08:38:08;;;;;;;14.35;8.60;;;;;;;14.39;29.55;97129.78;5110921;28;20411;-76
2022/03/10 08:40:36;;;;;;;15.35;8.60;;;;;;;14.56;29.51;97124.31;5113197;28;20044;-76
2022/03/10 08:43:05;;;;;;;14.60;8.45;;;;;;;14.63;29.78;97130.13;5112296;28;20052;-77
2022/03/10 08:45:31;;;;;;;17.80;8.90;;;;;;;14.69;29.36;97128.81;5111549;28;20066;-76
2022/03/10 08:47:58;;;;;;;15.10;9.63;;;;;;;14.61;31.90;97126.88;5111061;28;20048;-77
2022/03/10 08:50:25;;;;;;;14.95;8.43;;;;;;;14.81;29.81;97120.69;5111917;28;20043;-75
2022/03/10 08:52:52;;;;;;;19.83;10.77;;;;;;;14.62;30.61;97123.03;5108612;28;20399;-77
2022/03/10 08:55:19;;;;;;;17.75;10.27;;;;;;;14.68;29.88;97121.72;5110206;28;20044;-77
2022/03/10 08:57:47;;;;;;;19.90;11.93;;;;;;;14.01;31.55;97108.53;5105477;28;20059;-75
2022/03/10 09:00:15;;;;;;;23.02;12.48;;;;;;;14.22;31.79;97114.97;5105465;28;20051;-75
2022/03/10 09:02:42;;;;;;;13.68;8.65;;;;;;;14.38;30.12;97117.22;5107764;28;20493;-76
2022/03/10 09:05:09;;;;;;;16.58;8.68;;;;;;;14.23;30.31;97110.28;5106539;28;20052;-76
2022/03/10 09:07:36;;;;;;;16.48;8.45;;;;;;;13.75;30.25;97114.78;5108371;28;20054;-75
2022/03/10 09:10:04;;;;;;;15.70;9.07;;;;;;;13.58;32.01;97112.81;5106862;28;20044;-76
2022/03/10 09:12:30;;;;;;;14.25;8.70;;;;;;;13.62;31.87;97112.97;5108118;28;20112;-75
2022/03/10 09:14:58;;;;;;;15.65;8.63;;;;;;;13.67;32.15;97110.06;5106487;28;20051;-77
2022/03/10 09:17:25;;;;;;;14.85;8.00;;;;;;;13.63;31.08;97106.38;5107456;27;20047;-76
2022/03/10 09:19:51;;;;;;;14.23;7.28;;;;;;;13.50;31.04;97104.56;5107492;27;20494;-75
2022/03/10 09:22:18;;;;;;;13.15;7.72;;;;;;;13.54;31.30;97102.81;5107814;28;20054;-77
2022/03/10 09:24:45;;;;;;;15.02;7.93;;;;;;;13.48;31.54;97106.84;5106885;28;20108;-75
2022/03/10 09:27:11;;;;;;;13.73;7.60;;;;;;;13.47;31.04;97105.22;5106877;28;20501;-75
2022/03/10 09:29:38;;;;;;;12.07;7.20;;;;;;;13.37;31.29;97098.13;5108080;27;20477;-76
2022/03/10 09:32:06;;;;;;;24.17;8.55;;;;;;;13.39;31.64;97095.06;5106255;28;20054;-75
2022/03/10 09:34:33;;;;;;;14.00;6.90;;;;;;;13.50;31.23;97096.38;5107514;28;20040;-75
2022/03/10 09:36:59;;;;;;;11.85;6.72;;;;;;;13.73;30.78;97091.56;5128398;27;20047;-77
2022/03/10 09:39:26;;;;;;;12.02;6.70;;;;;;;13.82;29.93;97095.13;5129074;27;20058;-76
2022/03/10 09:41:57;;;;;;;13.45;6.88;;;;;;;13.97;29.48;97088.38;5111959;27;20055;-76
2022/03/10 09:44:27;;;;;;;13.85;6.35;;;;;;;14.08;30.84;97086.94;5109065;28;20040;-74
2022/03/10 09:46:55;;;;;;;9.85;6.15;;;;;;;14.19;29.66;97093.69;5109070;28;20051;-76
2022/03/10 09:49:24;;;;;;;12.02;6.78;;;;;;;14.38;28.86;97084.34;5109699;28;20490;-77
2022/03/10 09:51:51;;;;;;;12.65;6.65;;;;;;;14.39;28.93;97085.94;5110083;28;20077;-77
2022/03/10 09:54:18;;;;;;;11.13;6.65;;;;;;;14.49;29.21;97085.63;5107868;28;20173;-75
2022/03/10 09:56:44;;;;;;;13.30;6.95;;;;;;;14.78;28.55;97088.47;5107926;28;20079;-75
2022/03/10 09:59:12;;;;;;;11.73;6.60;;;;;;;15.02;27.93;97092.56;5106123;28;20051;-76
2022/03/10 10:01:39;;;;;;;10.77;6.32;;;;;;;14.94;27.74;97091.50;5107335;28;20056;-76
2022/03/10 10:04:06;;;;;;;17.80;7.80;;;;;;;14.95;27.24;97098.56;5106620;28;20052;-75
2022/03/10 10:07:00;;;;;;;13.48;6.97;;;;;;;15.18;27.42;97095.56;5109442;28;20039;-74
2022/03/10 10:09:40;;;;;;;10.48;6.82;;;;;;;15.37;26.53;97091.28;5107879;28;20109;-75
2022/03/10 10:12:07;;;;;;;12.18;7.65;;;;;;;15.24;26.82;97099.75;5107666;28;20052;-76
2022/03/10 10:14:39;;;;;;;13.13;7.47;;;;;;;15.10;26.69;97094.50;5108032;28;20047;-76
2022/03/10 10:17:06;;;;;;;11.65;6.85;;;;;;;14.95;26.76;97092.28;5107737;28;20048;-75
2022/03/10 10:19:34;;;;;;;15.00;8.02;;;;;;;14.79;27.77;97090.06;5108576;28;20112;-76
2022/03/10 10:22:12;;;;;;;11.60;7.47;;;;;;;14.70;27.51;97088.50;5107344;28;20093;-76
2022/03/10 10:24:39;;;;;;;17.40;8.43;;;;;;;14.48;27.69;97092.25;5106801;28;20051;-75
2022/03/10 10:27:13;;;;;;;12.68;7.38;;;;;;;14.23;28.21;97089.19;5106812;28;20047;-75
2022/03/10 10:29:46;;;;;;;12.60;7.93;;;;;;;14.23;28.79;97096.59;5101990;28;20055;-75
2022/03/10 10:32:13;;;;;;;12.68;7.53;;;;;;;14.13;27.87;97084.03;5087009;28;20044;-75
2022/03/10 10:34:40;;;;;;;12.40;7.43;;;;;;;13.95;28.40;97087.91;5085406;28;20052;-76
2022/03/10 10:37:06;;;;;;;14.85;8.00;;;;;;;13.92;28.24;97094.00;5087536;28;20139;-75
2022/03/10 10:39:52;;;;;;;16.25;7.72;;;;;;;13.71;28.48;97088.34;5087292;28;20048;-74
2022/03/10 10:42:18;;;;;;;14.88;8.30;;;;;;;13.54;28.14;97095.41;5102543;28;20100;-75
2022/03/10 10:44:45;;;;;;;13.18;7.70;;;;;;;13.47;28.79;97083.34;5107825;28;20048;-75
2022/03/10 10:47:14;;;;;;;12.95;7.70;;;;;;;13.45;28.38;97085.56;5109683;28;20079;-76
2022/03/10 10:49:42;;;;;;;12.93;7.30;;;;;;;13.35;29.48;97088.59;5111308;28;20050;-76
2022/03/10 10:52:11;;;;;;;12.80;7.45;;;;;;;13.37;29.19;97087.19;5111211;28;20075;-75
2022/03/10 10:54:40;;;;;;;12.90;7.13;;;;;;;13.27;28.47;97080.06;5114673;28;20051;-77
2022/03/10 10:57:07;;;;;;;11.68;7.22;;;;;;;13.38;28.40;97082.50;5116421;28;20514;-76
2022/03/10 10:59:35;;;;;;;11.82;7.07;;;;;;;13.38;28.14;97079.78;5115559;28;20749;-75
2022/03/10 11:02:09;;;;;;;12.50;7.05;;;;;;;13.38;28.12;97080.56;5115347;28;20047;-76
2022/03/10 11:04:37;;;;;;;11.75;6.95;;;;;;;13.36;28.26;97079.28;5116944;28;20069;-75
2022/03/10 11:07:08;;;;;;;14.45;6.65;;;;;;;13.30;27.81;97073.94;5115119;28;20105;-75
2022/03/10 11:09:34;;;;;;;13.13;7.20;;;;;;;13.35;27.91;97072.19;5117019;28;20048;-76
2022/03/10 11:12:03;;;;;;;12.57;7.80;;;;;;;13.28;28.82;97065.25;5116828;28;20048;-76
2022/03/10 11:14:29;;;;;;;14.55;7.72;;;;;;;13.15;28.25;97057.94;5111795;28;20047;-74
2022/03/10 11:16:56;;;;;;;14.77;7.72;;;;;;;13.06;28.12;97057.94;5112703;28;20565;-76
2022/03/10 11:19:25;;;;;;;12.93;7.53;;;;;;;13.04;28.63;97060.16;5114620;28;20071;-76
2022/03/10 11:22:08;;;;;;;14.55;6.55;;;;;;;12.90;27.61;97064.16;5114934;28;20071;-78
2022/03/10 11:25:03;;;;;;;12.63;7.43;;;;;;;12.94;28.67;97049.50;5113150;28;20058;-76
2022/03/10 11:27:34;;;;;;;13.45;6.65;;;;;;;13.05;27.79;97047.31;5114271;28;20122;-76
2022/03/10 11:30:07;;;;;;;11.82;5.93;;;;;;;13.11;27.16;97039.78;5114713;28;20055;-76
2022/03/10 11:32:34;;;;;;;10.68;6.50;;;;;;;13.23;27.08;97038.06;5114646;28;20409;-77
2022/03/10 11:35:02;;;;;;;13.32;6.80;;;;;;;13.36;27.39;97040.97;5115677;28;20054;-75